Weather at Fursatganj Airport

Public forecast

Using degrees Celsius for public forecast. Weather courtesy of forecast.io.

Closest aviation weather report (METAR) to Fursatganj Airport

Closest report is Chaudhary Charan Singh International Airport, 40.5 nm (75.0 km) NW. Retrieved 2020/10/29 04:30 UTC (17 minutes ago):

VILK 290430Z 00000KT 2500 HZ NSC 26/15 Q1015 BECMG 3000 HZ

Closest aviation forecast (TAF) to Fursatganj Airport

Closest forecast is Chaudhary Charan Singh International Airport, 40.5 nm (75.0 km) NW. Retrieved 2020-10-29 00:00 UTC (5 hours ago):

TAF VILK 282300Z 2900/3006 VRB02KT 1500 BR NSC BECMG 2904/2906 27004KT 3000 BR HZ BECMG 2907/2909 32005KT 5000 HZ BECMG 2912/2914 3000 BR BECMG 2920/2922 2500 BR BECMG 3001/3003 VRB02KT 2000 BR